sensor_id;sensor_type;location;lat;lon;timestamp;P1;durP1;ratioP1;P2;durP2;ratioP2
9809;SDS011;4944;52.514;13.192;2022-12-24T00:01:01;8.33;;;6.90;;
9809;SDS011;4944;52.514;13.192;2022-12-24T00:03:28;9.33;;;7.43;;
9809;SDS011;4944;52.514;13.192;2022-12-24T00:05:56;9.00;;;7.33;;
9809;SDS011;4944;52.514;13.192;2022-12-24T00:08:23;7.70;;;6.87;;
9809;SDS011;4944;52.514;13.192;2022-12-24T00:10:50;10.37;;;7.67;;
9809;SDS011;4944;52.514;13.192;2022-12-24T00:13:18;8.20;;;7.40;;
9809;SDS011;4944;52.514;13.192;2022-12-24T00:15:45;8.40;;;7.10;;
9809;SDS011;4944;52.514;13.192;2022-12-24T00:18:12;8.23;;;7.13;;
9809;SDS011;4944;52.514;13.192;2022-12-24T00:20:39;8.30;;;6.83;;
9809;SDS011;4944;52.514;13.192;2022-12-24T00:23:08;9.63;;;7.23;;
9809;SDS011;4944;52.514;13.192;2022-12-24T00:25:35;8.87;;;7.00;;
9809;SDS011;4944;52.514;13.192;2022-12-24T00:28:02;8.43;;;7.20;;
9809;SDS011;4944;52.514;13.192;2022-12-24T00:30:29;12.17;;;7.23;;
9809;SDS011;4944;52.514;13.192;2022-12-24T00:32:56;8.30;;;7.33;;
9809;SDS011;4944;52.514;13.192;2022-12-24T00:35:23;7.67;;;6.90;;
9809;SDS011;4944;52.514;13.192;2022-12-24T00:37:50;9.53;;;7.30;;
9809;SDS011;4944;52.514;13.192;2022-12-24T00:40:18;7.93;;;7.13;;
9809;SDS011;4944;52.514;13.192;2022-12-24T00:42:45;7.83;;;7.07;;
9809;SDS011;4944;52.514;13.192;2022-12-24T00:45:12;7.60;;;6.50;;
9809;SDS011;4944;52.514;13.192;2022-12-24T00:47:39;7.60;;;6.80;;
9809;SDS011;4944;52.514;13.192;2022-12-24T00:50:07;7.37;;;6.57;;
9809;SDS011;4944;52.514;13.192;2022-12-24T00:52:34;8.17;;;6.27;;
9809;SDS011;4944;52.514;13.192;2022-12-24T00:55:01;7.07;;;6.10;;
9809;SDS011;4944;52.514;13.192;2022-12-24T00:57:30;7.13;;;6.47;;
9809;SDS011;4944;52.514;13.192;2022-12-24T00:59:57;8.70;;;6.30;;
9809;SDS011;4944;52.514;13.192;2022-12-24T01:02:24;6.27;;;5.63;;
9809;SDS011;4944;52.514;13.192;2022-12-24T01:04:51;6.60;;;5.90;;
9809;SDS011;4944;52.514;13.192;2022-12-24T01:07:36;6.27;;;5.33;;
9809;SDS011;4944;52.514;13.192;2022-12-24T01:10:04;5.67;;;5.17;;
9809;SDS011;4944;52.514;13.192;2022-12-24T01:12:34;5.40;;;4.90;;
9809;SDS011;4944;52.514;13.192;2022-12-24T01:15:02;5.63;;;5.13;;
9809;SDS011;4944;52.514;13.192;2022-12-24T01:17:30;5.90;;;5.40;;
9809;SDS011;4944;52.514;13.192;2022-12-24T01:19:56;7.03;;;5.63;;
9809;SDS011;4944;52.514;13.192;2022-12-24T01:22:23;6.73;;;6.03;;
9809;SDS011;4944;52.514;13.192;2022-12-24T01:24:50;6.40;;;5.77;;
9809;SDS011;4944;52.514;13.192;2022-12-24T01:27:17;8.13;;;6.47;;
9809;SDS011;4944;52.514;13.192;2022-12-24T01:29:46;9.40;;;6.20;;
9809;SDS011;4944;52.514;13.192;2022-12-24T01:32:12;6.87;;;6.17;;
9809;SDS011;4944;52.514;13.192;2022-12-24T01:34:40;7.80;;;6.27;;
9809;SDS011;4944;52.514;13.192;2022-12-24T01:37:07;8.03;;;6.60;;
9809;SDS011;4944;52.514;13.192;2022-12-24T01:39:33;7.50;;;6.80;;
9809;SDS011;4944;52.514;13.192;2022-12-24T01:42:00;7.03;;;5.97;;
9809;SDS011;4944;52.514;13.192;2022-12-24T01:44:47;7.20;;;6.40;;
9809;SDS011;4944;52.514;13.192;2022-12-24T01:47:18;6.90;;;6.20;;
9809;SDS011;4944;52.514;13.192;2022-12-24T01:49:48;9.37;;;6.87;;
9809;SDS011;4944;52.514;13.192;2022-12-24T01:52:17;8.83;;;6.83;;
9809;SDS011;4944;52.514;13.192;2022-12-24T01:54:47;8.23;;;7.23;;
9809;SDS011;4944;52.514;13.192;2022-12-24T01:57:18;8.90;;;7.40;;
9809;SDS011;4944;52.514;13.192;2022-12-24T01:59:50;8.83;;;7.53;;
9809;SDS011;4944;52.514;13.192;2022-12-24T02:02:21;8.00;;;7.20;;
9809;SDS011;4944;52.514;13.192;2022-12-24T02:04:50;8.70;;;7.57;;
9809;SDS011;4944;52.514;13.192;2022-12-24T02:07:22;10.23;;;7.80;;
9809;SDS011;4944;52.514;13.192;2022-12-24T02:09:49;12.07;;;8.07;;
9809;SDS011;4944;52.514;13.192;2022-12-24T02:12:21;10.00;;;8.80;;
9809;SDS011;4944;52.514;13.192;2022-12-24T02:14:50;11.33;;;8.33;;
9809;SDS011;4944;52.514;13.192;2022-12-24T02:17:20;12.10;;;9.37;;
9809;SDS011;4944;52.514;13.192;2022-12-24T02:20:09;11.27;;;8.47;;
9809;SDS011;4944;52.514;13.192;2022-12-24T02:26:08;9.80;;;8.43;;
9809;SDS011;4944;52.514;13.192;2022-12-24T02:28:54;10.73;;;8.70;;
9809;SDS011;4944;52.514;13.192;2022-12-24T02:31:37;10.83;;;8.67;;
9809;SDS011;4944;52.514;13.192;2022-12-24T02:34:10;11.07;;;8.23;;
9809;SDS011;4944;52.514;13.192;2022-12-24T02:36:45;12.60;;;8.67;;
9809;SDS011;4944;52.514;13.192;2022-12-24T02:39:19;9.50;;;8.23;;
9809;SDS011;4944;52.514;13.192;2022-12-24T02:41:51;12.90;;;9.20;;
9809;SDS011;4944;52.514;13.192;2022-12-24T02:44:33;9.60;;;7.87;;
9809;SDS011;4944;52.514;13.192;2022-12-24T02:47:06;9.77;;;8.40;;
9809;SDS011;4944;52.514;13.192;2022-12-24T02:49:35;10.10;;;8.10;;
9809;SDS011;4944;52.514;13.192;2022-12-24T02:52:03;11.87;;;9.17;;
9809;SDS011;4944;52.514;13.192;2022-12-24T02:54:30;9.77;;;8.77;;
9809;SDS011;4944;52.514;13.192;2022-12-24T02:57:02;11.27;;;8.53;;
9809;SDS011;4944;52.514;13.192;2022-12-24T03:02:35;10.27;;;8.53;;
9809;SDS011;4944;52.514;13.192;2022-12-24T03:05:14;14.00;;;8.87;;
9809;SDS011;4944;52.514;13.192;2022-12-24T03:07:49;9.63;;;8.27;;
9809;SDS011;4944;52.514;13.192;2022-12-24T03:10:28;10.40;;;7.70;;
9809;SDS011;4944;52.514;13.192;2022-12-24T03:13:00;10.37;;;8.47;;
9809;SDS011;4944;52.514;13.192;2022-12-24T03:15:31;9.43;;;8.50;;
9809;SDS011;4944;52.514;13.192;2022-12-24T03:18:01;11.20;;;8.83;;
9809;SDS011;4944;52.514;13.192;2022-12-24T03:20:31;11.23;;;8.73;;
9809;SDS011;4944;52.514;13.192;2022-12-24T03:23:02;9.90;;;8.47;;
9809;SDS011;4944;52.514;13.192;2022-12-24T03:25:29;11.90;;;8.87;;
9809;SDS011;4944;52.514;13.192;2022-12-24T03:27:59;10.63;;;9.13;;
9809;SDS011;4944;52.514;13.192;2022-12-24T03:30:30;11.43;;;8.73;;
9809;SDS011;4944;52.514;13.192;2022-12-24T03:32:57;10.83;;;8.87;;
9809;SDS011;4944;52.514;13.192;2022-12-24T03:35:25;11.10;;;8.53;;
9809;SDS011;4944;52.514;13.192;2022-12-24T03:37:52;12.00;;;8.60;;
9809;SDS011;4944;52.514;13.192;2022-12-24T03:40:19;10.03;;;9.00;;
9809;SDS011;4944;52.514;13.192;2022-12-24T03:42:46;11.87;;;9.30;;
9809;SDS011;4944;52.514;13.192;2022-12-24T03:45:13;9.90;;;8.60;;
9809;SDS011;4944;52.514;13.192;2022-12-24T03:47:40;10.47;;;8.77;;
9809;SDS011;4944;52.514;13.192;2022-12-24T03:50:07;10.60;;;8.57;;
9809;SDS011;4944;52.514;13.192;2022-12-24T03:52:35;10.20;;;8.63;;
9809;SDS011;4944;52.514;13.192;2022-12-24T03:55:02;12.43;;;8.70;;
9809;SDS011;4944;52.514;13.192;2022-12-24T03:57:30;12.83;;;9.13;;
9809;SDS011;4944;52.514;13.192;2022-12-24T03:59:57;11.73;;;9.17;;
9809;SDS011;4944;52.514;13.192;2022-12-24T04:02:24;10.67;;;9.03;;
9809;SDS011;4944;52.514;13.192;2022-12-24T04:04:50;11.83;;;8.07;;
9809;SDS011;4944;52.514;13.192;2022-12-24T04:07:17;11.03;;;8.83;;
9809;SDS011;4944;52.514;13.192;2022-12-24T04:09:46;10.37;;;8.60;;
9809;SDS011;4944;52.514;13.192;2022-12-24T04:12:15;11.73;;;9.40;;
9809;SDS011;4944;52.514;13.192;2022-12-24T04:14:42;11.43;;;9.43;;
9809;SDS011;4944;52.514;13.192;2022-12-24T04:17:09;11.60;;;9.27;;
9809;SDS011;4944;52.514;13.192;2022-12-24T04:19:36;9.83;;;8.83;;
9809;SDS011;4944;52.514;13.192;2022-12-24T04:22:03;13.90;;;9.67;;
9809;SDS011;4944;52.514;13.192;2022-12-24T04:24:30;11.13;;;9.10;;
9809;SDS011;4944;52.514;13.192;2022-12-24T04:26:58;14.50;;;9.83;;
9809;SDS011;4944;52.514;13.192;2022-12-24T04:29:25;13.17;;;9.43;;
9809;SDS011;4944;52.514;13.192;2022-12-24T04:31:52;12.63;;;9.07;;
9809;SDS011;4944;52.514;13.192;2022-12-24T04:34:18;13.30;;;9.53;;
9809;SDS011;4944;52.514;13.192;2022-12-24T04:36:45;11.47;;;9.33;;
9809;SDS011;4944;52.514;13.192;2022-12-24T04:39:12;11.50;;;9.63;;
9809;SDS011;4944;52.514;13.192;2022-12-24T04:41:39;12.83;;;9.50;;
9809;SDS011;4944;52.514;13.192;2022-12-24T04:44:08;10.83;;;9.10;;
9809;SDS011;4944;52.514;13.192;2022-12-24T04:46:35;11.90;;;9.17;;
9809;SDS011;4944;52.514;13.192;2022-12-24T04:49:02;10.67;;;8.87;;
9809;SDS011;4944;52.514;13.192;2022-12-24T04:51:29;10.17;;;9.07;;
9809;SDS011;4944;52.514;13.192;2022-12-24T04:53:56;12.27;;;9.50;;
9809;SDS011;4944;52.514;13.192;2022-12-24T04:56:23;14.83;;;10.20;;
9809;SDS011;4944;52.514;13.192;2022-12-24T04:58:52;11.33;;;8.87;;
9809;SDS011;4944;52.514;13.192;2022-12-24T05:01:21;12.47;;;9.23;;
9809;SDS011;4944;52.514;13.192;2022-12-24T05:03:49;10.23;;;8.20;;
9809;SDS011;4944;52.514;13.192;2022-12-24T05:06:18;11.93;;;9.37;;
9809;SDS011;4944;52.514;13.192;2022-12-24T05:08:46;10.80;;;9.37;;
9809;SDS011;4944;52.514;13.192;2022-12-24T05:11:13;14.20;;;9.53;;
9809;SDS011;4944;52.514;13.192;2022-12-24T05:13:40;10.77;;;9.00;;
9809;SDS011;4944;52.514;13.192;2022-12-24T05:16:08;10.60;;;8.87;;
9809;SDS011;4944;52.514;13.192;2022-12-24T05:18:37;13.20;;;9.27;;
9809;SDS011;4944;52.514;13.192;2022-12-24T05:21:06;12.47;;;8.50;;
9809;SDS011;4944;52.514;13.192;2022-12-24T05:23:34;11.50;;;9.03;;
9809;SDS011;4944;52.514;13.192;2022-12-24T05:26:22;11.03;;;9.23;;
9809;SDS011;4944;52.514;13.192;2022-12-24T05:28:55;10.60;;;8.67;;
9809;SDS011;4944;52.514;13.192;2022-12-24T05:31:23;11.77;;;9.33;;
9809;SDS011;4944;52.514;13.192;2022-12-24T05:33:52;11.03;;;8.57;;
9809;SDS011;4944;52.514;13.192;2022-12-24T05:36:21;12.07;;;9.13;;
9809;SDS011;4944;52.514;13.192;2022-12-24T05:38:48;10.93;;;8.90;;
9809;SDS011;4944;52.514;13.192;2022-12-24T05:41:15;13.53;;;8.80;;
9809;SDS011;4944;52.514;13.192;2022-12-24T05:43:43;9.93;;;8.23;;
9809;SDS011;4944;52.514;13.192;2022-12-24T05:46:10;8.97;;;8.07;;
9809;SDS011;4944;52.514;13.192;2022-12-24T05:48:38;11.10;;;8.80;;
9809;SDS011;4944;52.514;13.192;2022-12-24T05:51:08;11.10;;;8.93;;
9809;SDS011;4944;52.514;13.192;2022-12-24T05:53:36;9.47;;;8.57;;
9809;SDS011;4944;52.514;13.192;2022-12-24T05:56:04;10.63;;;9.03;;
9809;SDS011;4944;52.514;13.192;2022-12-24T05:58:32;9.63;;;8.63;;
9809;SDS011;4944;52.514;13.192;2022-12-24T06:00:59;9.73;;;8.73;;
9809;SDS011;4944;52.514;13.192;2022-12-24T06:03:26;9.07;;;8.23;;
9809;SDS011;4944;52.514;13.192;2022-12-24T06:05:58;8.93;;;8.03;;
9809;SDS011;4944;52.514;13.192;2022-12-24T06:08:28;10.27;;;8.20;;
9809;SDS011;4944;52.514;13.192;2022-12-24T06:10:56;9.40;;;8.40;;
9809;SDS011;4944;52.514;13.192;2022-12-24T06:13:23;9.90;;;8.53;;
9809;SDS011;4944;52.514;13.192;2022-12-24T06:15:53;9.30;;;8.27;;
9809;SDS011;4944;52.514;13.192;2022-12-24T06:18:20;9.93;;;8.93;;
9809;SDS011;4944;52.514;13.192;2022-12-24T06:20:48;10.23;;;9.10;;
9809;SDS011;4944;52.514;13.192;2022-12-24T06:23:16;9.50;;;8.60;;
9809;SDS011;4944;52.514;13.192;2022-12-24T06:25:44;10.47;;;9.37;;
9809;SDS011;4944;52.514;13.192;2022-12-24T06:28:11;10.50;;;9.43;;
9809;SDS011;4944;52.514;13.192;2022-12-24T06:30:38;11.43;;;9.43;;
9809;SDS011;4944;52.514;13.192;2022-12-24T06:33:05;10.73;;;9.60;;
9809;SDS011;4944;52.514;13.192;2022-12-24T06:35:32;13.53;;;10.10;;
9809;SDS011;4944;52.514;13.192;2022-12-24T06:37:59;10.80;;;9.70;;
9809;SDS011;4944;52.514;13.192;2022-12-24T06:40:26;10.67;;;9.67;;
9809;SDS011;4944;52.514;13.192;2022-12-24T06:42:54;10.17;;;9.17;;
9809;SDS011;4944;52.514;13.192;2022-12-24T06:45:21;10.93;;;9.83;;
9809;SDS011;4944;52.514;13.192;2022-12-24T06:47:48;10.97;;;9.53;;
9809;SDS011;4944;52.514;13.192;2022-12-24T06:50:15;9.90;;;8.90;;
9809;SDS011;4944;52.514;13.192;2022-12-24T06:52:42;10.50;;;9.40;;
9809;SDS011;4944;52.514;13.192;2022-12-24T06:55:09;11.27;;;10.07;;
9809;SDS011;4944;52.514;13.192;2022-12-24T06:57:36;10.50;;;9.40;;
9809;SDS011;4944;52.514;13.192;2022-12-24T07:00:05;11.47;;;10.30;;
9809;SDS011;4944;52.514;13.192;2022-12-24T07:02:32;11.93;;;9.63;;
9809;SDS011;4944;52.514;13.192;2022-12-24T07:04:59;10.83;;;9.73;;
9809;SDS011;4944;52.514;13.192;2022-12-24T07:07:26;9.83;;;8.90;;
9809;SDS011;4944;52.514;13.192;2022-12-24T07:09:53;11.20;;;9.63;;
9809;SDS011;4944;52.514;13.192;2022-12-24T07:12:21;11.57;;;10.03;;
9809;SDS011;4944;52.514;13.192;2022-12-24T07:14:48;11.37;;;10.17;;
9809;SDS011;4944;52.514;13.192;2022-12-24T07:17:16;11.77;;;10.30;;
9809;SDS011;4944;52.514;13.192;2022-12-24T07:19:43;11.50;;;10.30;;
9809;SDS011;4944;52.514;13.192;2022-12-24T07:22:10;11.20;;;9.97;;
9809;SDS011;4944;52.514;13.192;2022-12-24T07:24:37;11.40;;;10.03;;
9809;SDS011;4944;52.514;13.192;2022-12-24T07:27:04;12.53;;;10.57;;
9809;SDS011;4944;52.514;13.192;2022-12-24T07:29:30;11.60;;;9.43;;
9809;SDS011;4944;52.514;13.192;2022-12-24T07:31:57;11.67;;;10.47;;
9809;SDS011;4944;52.514;13.192;2022-12-24T07:34:25;10.80;;;9.70;;
9809;SDS011;4944;52.514;13.192;2022-12-24T07:36:52;12.80;;;10.13;;
9809;SDS011;4944;52.514;13.192;2022-12-24T07:39:19;10.77;;;9.67;;
9809;SDS011;4944;52.514;13.192;2022-12-24T07:41:46;11.40;;;9.77;;
9809;SDS011;4944;52.514;13.192;2022-12-24T07:44:14;9.93;;;8.93;;
9809;SDS011;4944;52.514;13.192;2022-12-24T07:46:42;10.63;;;9.03;;
9809;SDS011;4944;52.514;13.192;2022-12-24T07:49:09;10.47;;;9.37;;
9809;SDS011;4944;52.514;13.192;2022-12-24T07:51:37;11.43;;;10.20;;
9809;SDS011;4944;52.514;13.192;2022-12-24T07:54:04;12.83;;;10.40;;
9809;SDS011;4944;52.514;13.192;2022-12-24T07:56:31;11.03;;;9.70;;
9809;SDS011;4944;52.514;13.192;2022-12-24T07:58:59;12.13;;;9.67;;
9809;SDS011;4944;52.514;13.192;2022-12-24T08:01:26;11.23;;;9.83;;
9809;SDS011;4944;52.514;13.192;2022-12-24T08:03:53;10.27;;;9.10;;
9809;SDS011;4944;52.514;13.192;2022-12-24T08:06:20;11.93;;;10.03;;
9809;SDS011;4944;52.514;13.192;2022-12-24T08:08:48;10.63;;;9.53;;
9809;SDS011;4944;52.514;13.192;2022-12-24T08:11:15;10.17;;;9.17;;
9809;SDS011;4944;52.514;13.192;2022-12-24T08:13:42;11.30;;;9.73;;
9809;SDS011;4944;52.514;13.192;2022-12-24T08:16:09;10.37;;;9.27;;
9809;SDS011;4944;52.514;13.192;2022-12-24T08:18:36;12.73;;;9.60;;
9809;SDS011;4944;52.514;13.192;2022-12-24T08:21:05;10.37;;;9.37;;
9809;SDS011;4944;52.514;13.192;2022-12-24T08:23:33;11.40;;;9.17;;
9809;SDS011;4944;52.514;13.192;2022-12-24T08:26:02;10.83;;;9.27;;
9809;SDS011;4944;52.514;13.192;2022-12-24T08:28:31;10.97;;;9.67;;
9809;SDS011;4944;52.514;13.192;2022-12-24T08:30:58;10.73;;;9.40;;
9809;SDS011;4944;52.514;13.192;2022-12-24T08:33:25;10.63;;;9.53;;
9809;SDS011;4944;52.514;13.192;2022-12-24T08:35:53;10.60;;;9.50;;
9809;SDS011;4944;52.514;13.192;2022-12-24T08:38:21;13.53;;;10.20;;
9809;SDS011;4944;52.514;13.192;2022-12-24T08:40:48;12.60;;;10.37;;
9809;SDS011;4944;52.514;13.192;2022-12-24T08:43:19;11.87;;;9.47;;
9809;SDS011;4944;52.514;13.192;2022-12-24T08:45:47;11.53;;;10.20;;
9809;SDS011;4944;52.514;13.192;2022-12-24T08:48:14;10.97;;;9.53;;
9809;SDS011;4944;52.514;13.192;2022-12-24T08:50:41;12.40;;;9.77;;
9809;SDS011;4944;52.514;13.192;2022-12-24T08:53:09;12.00;;;10.17;;
9809;SDS011;4944;52.514;13.192;2022-12-24T08:55:36;10.27;;;8.77;;
9809;SDS011;4944;52.514;13.192;2022-12-24T08:58:04;13.30;;;10.27;;
9809;SDS011;4944;52.514;13.192;2022-12-24T09:00:32;11.37;;;9.70;;
9809;SDS011;4944;52.514;13.192;2022-12-24T09:02:59;11.03;;;9.57;;
9809;SDS011;4944;52.514;13.192;2022-12-24T09:05:26;11.90;;;9.60;;
9809;SDS011;4944;52.514;13.192;2022-12-24T09:07:54;10.60;;;9.50;;
9809;SDS011;4944;52.514;13.192;2022-12-24T09:10:21;10.67;;;9.47;;
9809;SDS011;4944;52.514;13.192;2022-12-24T09:12:48;11.07;;;9.67;;
9809;SDS011;4944;52.514;13.192;2022-12-24T09:15:16;11.17;;;9.27;;
9809;SDS011;4944;52.514;13.192;2022-12-24T09:17:44;10.53;;;9.43;;
9809;SDS011;4944;52.514;13.192;2022-12-24T09:20:11;11.23;;;9.70;;
9809;SDS011;4944;52.514;13.192;2022-12-24T09:22:38;11.80;;;9.47;;
9809;SDS011;4944;52.514;13.192;2022-12-24T09:25:06;13.47;;;9.77;;
9809;SDS011;4944;52.514;13.192;2022-12-24T09:27:34;11.83;;;9.83;;
9809;SDS011;4944;52.514;13.192;2022-12-24T09:30:02;10.87;;;8.97;;
9809;SDS011;4944;52.514;13.192;2022-12-24T09:32:30;10.47;;;9.37;;
9809;SDS011;4944;52.514;13.192;2022-12-24T09:34:58;13.10;;;10.83;;
9809;SDS011;4944;52.514;13.192;2022-12-24T09:37:25;11.30;;;10.10;;
9809;SDS011;4944;52.514;13.192;2022-12-24T09:39:52;13.90;;;11.00;;
9809;SDS011;4944;52.514;13.192;2022-12-24T09:42:21;12.53;;;10.27;;
9809;SDS011;4944;52.514;13.192;2022-12-24T09:44:57;11.17;;;9.70;;
9809;SDS011;4944;52.514;13.192;2022-12-24T09:47:31;11.33;;;8.80;;
9809;SDS011;4944;52.514;13.192;2022-12-24T09:50:08;11.80;;;9.83;;
9809;SDS011;4944;52.514;13.192;2022-12-24T09:52:49;10.90;;;9.73;;
9809;SDS011;4944;52.514;13.192;2022-12-24T09:55:19;10.27;;;9.17;;
9809;SDS011;4944;52.514;13.192;2022-12-24T09:57:50;11.63;;;9.40;;
9809;SDS011;4944;52.514;13.192;2022-12-24T10:00:20;11.20;;;9.23;;
9809;SDS011;4944;52.514;13.192;2022-12-24T10:02:49;11.63;;;9.47;;
9809;SDS011;4944;52.514;13.192;2022-12-24T10:05:20;9.43;;;8.50;;
9809;SDS011;4944;52.514;13.192;2022-12-24T10:07:56;11.93;;;9.07;;
9809;SDS011;4944;52.514;13.192;2022-12-24T10:10:35;10.13;;;9.13;;
9809;SDS011;4944;52.514;13.192;2022-12-24T10:13:20;10.47;;;8.83;;
9809;SDS011;4944;52.514;13.192;2022-12-24T10:15:57;10.27;;;8.73;;
9809;SDS011;4944;52.514;13.192;2022-12-24T10:18:29;10.33;;;8.50;;
9809;SDS011;4944;52.514;13.192;2022-12-24T10:21:04;10.20;;;8.73;;
9809;SDS011;4944;52.514;13.192;2022-12-24T10:23:39;9.00;;;8.10;;
9809;SDS011;4944;52.514;13.192;2022-12-24T10:26:12;9.50;;;8.50;;
9809;SDS011;4944;52.514;13.192;2022-12-24T10:28:44;9.83;;;8.77;;
9809;SDS011;4944;52.514;13.192;2022-12-24T10:31:14;9.50;;;8.60;;
9809;SDS011;4944;52.514;13.192;2022-12-24T10:33:41;14.33;;;12.30;;
9809;SDS011;4944;52.514;13.192;2022-12-24T10:36:13;12.83;;;11.40;;
9809;SDS011;4944;52.514;13.192;2022-12-24T10:38:43;10.43;;;9.33;;
9809;SDS011;4944;52.514;13.192;2022-12-24T10:41:11;10.23;;;9.00;;
9809;SDS011;4944;52.514;13.192;2022-12-24T10:43:39;10.17;;;9.03;;
9809;SDS011;4944;52.514;13.192;2022-12-24T10:46:13;9.77;;;8.77;;
9809;SDS011;4944;52.514;13.192;2022-12-24T10:48:45;10.83;;;8.90;;
9809;SDS011;4944;52.514;13.192;2022-12-24T10:51:20;11.30;;;9.40;;
9809;SDS011;4944;52.514;13.192;2022-12-24T10:53:50;11.97;;;9.27;;
9809;SDS011;4944;52.514;13.192;2022-12-24T10:56:23;9.47;;;8.47;;
9809;SDS011;4944;52.514;13.192;2022-12-24T10:58:51;11.43;;;9.17;;
9809;SDS011;4944;52.514;13.192;2022-12-24T11:01:20;11.10;;;9.17;;
9809;SDS011;4944;52.514;13.192;2022-12-24T11:04:12;9.87;;;8.87;;
9809;SDS011;4944;52.514;13.192;2022-12-24T11:06:47;10.67;;;8.77;;
9809;SDS011;4944;52.514;13.192;2022-12-24T11:09:19;11.10;;;9.23;;
9809;SDS011;4944;52.514;13.192;2022-12-24T11:11:48;10.73;;;8.83;;
9809;SDS011;4944;52.514;13.192;2022-12-24T11:14:16;9.77;;;8.03;;
9809;SDS011;4944;52.514;13.192;2022-12-24T11:16:48;9.60;;;8.20;;
9809;SDS011;4944;52.514;13.192;2022-12-24T11:19:18;10.80;;;8.47;;
9809;SDS011;4944;52.514;13.192;2022-12-24T11:21:54;11.63;;;8.60;;
9809;SDS011;4944;52.514;13.192;2022-12-24T11:24:25;9.77;;;8.70;;
9809;SDS011;4944;52.514;13.192;2022-12-24T11:27:21;11.50;;;8.60;;
9809;SDS011;4944;52.514;13.192;2022-12-24T11:29:48;11.40;;;8.23;;
9809;SDS011;4944;52.514;13.192;2022-12-24T11:32:16;11.93;;;9.63;;
9809;SDS011;4944;52.514;13.192;2022-12-24T11:34:44;14.80;;;10.00;;
9809;SDS011;4944;52.514;13.192;2022-12-24T11:37:15;10.20;;;8.83;;
9809;SDS011;4944;52.514;13.192;2022-12-24T11:39:45;10.47;;;8.03;;
9809;SDS011;4944;52.514;13.192;2022-12-24T11:42:21;8.53;;;7.60;;
9809;SDS011;4944;52.514;13.192;2022-12-24T11:44:58;8.13;;;7.33;;
9809;SDS011;4944;52.514;13.192;2022-12-24T11:47:32;9.70;;;7.17;;
9809;SDS011;4944;52.514;13.192;2022-12-24T11:52:54;9.17;;;6.90;;
9809;SDS011;4944;52.514;13.192;2022-12-24T11:55:27;8.63;;;7.67;;
9809;SDS011;4944;52.514;13.192;2022-12-24T11:58:03;9.33;;;8.33;;
9809;SDS011;4944;52.514;13.192;2022-12-24T12:00:37;7.50;;;6.50;;
9809;SDS011;4944;52.514;13.192;2022-12-24T12:03:07;7.67;;;6.90;;
9809;SDS011;4944;52.514;13.192;2022-12-24T12:05:51;6.03;;;5.53;;
9809;SDS011;4944;52.514;13.192;2022-12-24T12:08:22;7.17;;;6.27;;
9809;SDS011;4944;52.514;13.192;2022-12-24T12:10:50;6.70;;;6.10;;
9809;SDS011;4944;52.514;13.192;2022-12-24T12:13:21;6.77;;;6.17;;
9809;SDS011;4944;52.514;13.192;2022-12-24T12:16:02;7.47;;;6.40;;
9809;SDS011;4944;52.514;13.192;2022-12-24T12:18:37;7.17;;;6.07;;
9809;SDS011;4944;52.514;13.192;2022-12-24T12:21:07;7.50;;;6.70;;
9809;SDS011;4944;52.514;13.192;2022-12-24T12:23:41;6.87;;;5.43;;
9809;SDS011;4944;52.514;13.192;2022-12-24T12:26:13;6.40;;;5.80;;
9809;SDS011;4944;52.514;13.192;2022-12-24T12:28:45;6.67;;;6.07;;
9809;SDS011;4944;52.514;13.192;2022-12-24T12:31:18;9.63;;;5.70;;
9809;SDS011;4944;52.514;13.192;2022-12-24T12:33:50;7.53;;;6.80;;
9809;SDS011;4944;52.514;13.192;2022-12-24T12:36:22;8.17;;;5.67;;
9809;SDS011;4944;52.514;13.192;2022-12-24T12:38:55;7.33;;;5.30;;
9809;SDS011;4944;52.514;13.192;2022-12-24T12:41:27;7.27;;;5.10;;
9809;SDS011;4944;52.514;13.192;2022-12-24T12:44:09;6.93;;;5.37;;
9809;SDS011;4944;52.514;13.192;2022-12-24T12:46:51;8.77;;;5.47;;
9809;SDS011;4944;52.514;13.192;2022-12-24T12:49:29;7.50;;;5.40;;
9809;SDS011;4944;52.514;13.192;2022-12-24T12:52:02;6.77;;;4.70;;
9809;SDS011;4944;52.514;13.192;2022-12-24T12:54:45;8.00;;;4.80;;
9809;SDS011;4944;52.514;13.192;2022-12-24T12:57:22;10.07;;;4.83;;
9809;SDS011;4944;52.514;13.192;2022-12-24T12:59:53;8.47;;;4.60;;
9809;SDS011;4944;52.514;13.192;2022-12-24T13:05:19;9.17;;;6.30;;
9809;SDS011;4944;52.514;13.192;2022-12-24T13:20:08;14.70;;;7.50;;
9809;SDS011;4944;52.514;13.192;2022-12-24T13:22:46;13.77;;;7.07;;
9809;SDS011;4944;52.514;13.192;2022-12-24T13:25:19;15.80;;;6.77;;
9809;SDS011;4944;52.514;13.192;2022-12-24T13:27:48;12.43;;;5.63;;
9809;SDS011;4944;52.514;13.192;2022-12-24T13:33:00;12.53;;;4.90;;
9809;SDS011;4944;52.514;13.192;2022-12-24T13:35:29;14.57;;;5.63;;
9809;SDS011;4944;52.514;13.192;2022-12-24T13:44:00;13.37;;;4.57;;
9809;SDS011;4944;52.514;13.192;2022-12-24T13:49:27;19.53;;;5.43;;
9809;SDS011;4944;52.514;13.192;2022-12-24T13:54:47;15.47;;;5.10;;
9809;SDS011;4944;52.514;13.192;2022-12-24T13:57:30;17.53;;;4.87;;
9809;SDS011;4944;52.514;13.192;2022-12-24T14:00:02;12.13;;;4.87;;
9809;SDS011;4944;52.514;13.192;2022-12-24T14:02:34;16.93;;;4.83;;
9809;SDS011;4944;52.514;13.192;2022-12-24T14:05:07;21.77;;;5.60;;
9809;SDS011;4944;52.514;13.192;2022-12-24T14:07:43;14.67;;;5.43;;
9809;SDS011;4944;52.514;13.192;2022-12-24T14:10:18;29.87;;;6.57;;
9809;SDS011;4944;52.514;13.192;2022-12-24T14:12:49;13.27;;;5.30;;
9809;SDS011;4944;52.514;13.192;2022-12-24T14:18:29;20.97;;;5.93;;
9809;SDS011;4944;52.514;13.192;2022-12-24T14:21:01;17.33;;;5.30;;
9809;SDS011;4944;52.514;13.192;2022-12-24T14:23:35;16.63;;;4.83;;
9809;SDS011;4944;52.514;13.192;2022-12-24T14:26:11;20.87;;;5.53;;
9809;SDS011;4944;52.514;13.192;2022-12-24T14:28:42;17.90;;;5.70;;
9809;SDS011;4944;52.514;13.192;2022-12-24T14:31:16;11.57;;;5.03;;
9809;SDS011;4944;52.514;13.192;2022-12-24T14:33:43;19.87;;;5.47;;
9809;SDS011;4944;52.514;13.192;2022-12-24T14:36:13;18.97;;;5.83;;
9809;SDS011;4944;52.514;13.192;2022-12-24T14:38:43;22.93;;;10.40;;
9809;SDS011;4944;52.514;13.192;2022-12-24T14:41:16;18.67;;;6.60;;
9809;SDS011;4944;52.514;13.192;2022-12-24T14:43:56;17.47;;;5.40;;
9809;SDS011;4944;52.514;13.192;2022-12-24T14:46:31;17.70;;;4.90;;
9809;SDS011;4944;52.514;13.192;2022-12-24T14:49:06;13.43;;;5.23;;
9809;SDS011;4944;52.514;13.192;2022-12-24T14:51:44;23.00;;;9.00;;
9809;SDS011;4944;52.514;13.192;2022-12-24T14:54:31;35.77;;;16.27;;
9809;SDS011;4944;52.514;13.192;2022-12-24T14:59:52;36.67;;;19.17;;
9809;SDS011;4944;52.514;13.192;2022-12-24T15:02:21;17.73;;;7.10;;
9809;SDS011;4944;52.514;13.192;2022-12-24T15:05:06;17.03;;;6.67;;
9809;SDS011;4944;52.514;13.192;2022-12-24T15:07:37;14.30;;;6.40;;
9809;SDS011;4944;52.514;13.192;2022-12-24T15:10:16;14.73;;;6.17;;
9809;SDS011;4944;52.514;13.192;2022-12-24T15:12:49;44.13;;;19.00;;
9809;SDS011;4944;52.514;13.192;2022-12-24T15:15:17;20.47;;;10.27;;
9809;SDS011;4944;52.514;13.192;2022-12-24T15:17:45;25.47;;;12.30;;
9809;SDS011;4944;52.514;13.192;2022-12-24T15:20:12;24.73;;;7.13;;
9809;SDS011;4944;52.514;13.192;2022-12-24T15:22:43;19.60;;;7.00;;
9809;SDS011;4944;52.514;13.192;2022-12-24T15:25:18;18.47;;;7.53;;
9809;SDS011;4944;52.514;13.192;2022-12-24T15:27:47;19.70;;;7.60;;
9809;SDS011;4944;52.514;13.192;2022-12-24T15:30:14;19.40;;;8.07;;
9809;SDS011;4944;52.514;13.192;2022-12-24T15:32:42;15.67;;;9.33;;
9809;SDS011;4944;52.514;13.192;2022-12-24T15:37:57;11.20;;;5.53;;
9809;SDS011;4944;52.514;13.192;2022-12-24T15:40:25;10.57;;;5.20;;
9809;SDS011;4944;52.514;13.192;2022-12-24T15:42:53;18.97;;;6.37;;
9809;SDS011;4944;52.514;13.192;2022-12-24T15:45:20;8.67;;;5.70;;
9809;SDS011;4944;52.514;13.192;2022-12-24T15:47:50;17.33;;;7.10;;
9809;SDS011;4944;52.514;13.192;2022-12-24T15:50:22;15.97;;;7.33;;
9809;SDS011;4944;52.514;13.192;2022-12-24T15:52:52;11.47;;;6.50;;
9809;SDS011;4944;52.514;13.192;2022-12-24T15:55:25;17.30;;;6.33;;